createdAt,value
2018-02-23T00:00:17.294Z,12.90
2018-02-23T00:02:55.893Z,13.95
2018-02-23T00:05:26.553Z,12.60
2018-02-23T00:07:56.238Z,11.85
2018-02-23T00:10:27.223Z,11.55
2018-02-23T00:12:54.441Z,11.43
2018-02-23T00:15:27.388Z,11.45
2018-02-23T00:17:58.908Z,13.30
2018-02-23T00:20:26.252Z,12.75
2018-02-23T00:22:54.700Z,12.57
2018-02-23T00:25:27.575Z,12.40
2018-02-23T00:28:01.940Z,10.77
2018-02-23T00:30:32.752Z,11.48
2018-02-23T00:32:59.785Z,11.52
2018-02-23T00:35:30.178Z,11.70
2018-02-23T00:37:57.171Z,12.18
2018-02-23T00:40:23.871Z,12.88
2018-02-23T00:42:53.758Z,7.85
2018-02-23T00:45:22.784Z,11.90
2018-02-23T00:47:50.428Z,12.35
2018-02-23T00:50:22.582Z,12.05
2018-02-23T00:52:50.791Z,11.35
2018-02-23T00:55:31.507Z,12.23
2018-02-23T00:58:02.013Z,11.50
2018-02-23T01:10:14.315Z,11.07
2018-02-23T01:12:41.027Z,12.27
2018-02-23T01:15:09.664Z,12.95
2018-02-23T01:17:36.729Z,12.30
2018-02-23T01:20:11.170Z,10.30
2018-02-23T01:22:41.857Z,12.43
2018-02-23T01:25:08.614Z,11.25
2018-02-23T01:27:36.012Z,11.75
2018-02-23T01:30:03.721Z,11.20
2018-02-23T01:32:34.941Z,13.20
2018-02-23T01:35:13.587Z,12.00
2018-02-23T01:37:40.287Z,12.30
2018-02-23T01:40:11.137Z,12.40
2018-02-23T01:42:37.833Z,12.93
2018-02-23T01:45:05.301Z,12.57
2018-02-23T01:47:32.952Z,11.52
2018-02-23T01:49:59.948Z,13.07
2018-02-23T01:52:30.764Z,13.10
2018-02-23T01:54:58.631Z,13.10
2018-02-23T01:57:27.099Z,13.98
2018-02-23T01:59:53.809Z,14.80
2018-02-23T02:02:36.079Z,14.68
2018-02-23T02:05:02.805Z,13.85
2018-02-23T02:07:29.482Z,14.82
2018-02-23T02:09:56.843Z,13.90
2018-02-23T02:12:23.953Z,14.35
2018-02-23T02:14:52.010Z,13.93
2018-02-23T02:17:19.085Z,13.35
2018-02-23T02:19:49.623Z,15.55
2018-02-23T02:22:19.235Z,16.83
2018-02-23T02:24:46.682Z,15.52
2018-02-23T02:27:13.280Z,15.32
2018-02-23T02:29:40.239Z,14.40
2018-02-23T02:32:08.183Z,15.90
2018-02-23T02:34:38.528Z,15.45
2018-02-23T02:37:06.944Z,16.05
2018-02-23T02:39:34.639Z,15.38
2018-02-23T02:42:02.037Z,15.90
2018-02-23T02:44:28.978Z,15.20
2018-02-23T02:46:59.793Z,14.82
2018-02-23T02:49:30.020Z,18.33
2018-02-23T02:52:00.588Z,17.35
2018-02-23T02:54:27.680Z,19.25
2018-02-23T02:56:55.701Z,16.00
2018-02-23T02:59:26.703Z,18.58
2018-02-23T03:01:53.409Z,16.65
2018-02-23T03:04:24.152Z,17.02
2018-02-23T03:06:50.832Z,19.33
2018-02-23T03:09:19.137Z,18.37
2018-02-23T03:11:45.780Z,17.02
2018-02-23T03:14:16.334Z,15.05
2018-02-23T03:16:47.121Z,16.95
2018-02-23T03:19:13.864Z,16.85
2018-02-23T03:21:44.991Z,18.27
2018-02-23T03:24:15.756Z,18.10
2018-02-23T03:26:44.127Z,19.45
2018-02-23T03:29:19.909Z,18.58
2018-02-23T03:31:57.244Z,16.40
2018-02-23T03:34:23.914Z,15.60
2018-02-23T03:36:51.427Z,16.02
2018-02-23T03:39:22.844Z,15.20
2018-02-23T03:41:49.480Z,14.25
2018-02-23T03:44:20.000Z,15.43
2018-02-23T03:46:46.650Z,16.15
2018-02-23T03:49:14.133Z,15.18
2018-02-23T03:51:41.572Z,16.45
2018-02-23T03:54:08.304Z,14.10
2018-02-23T03:56:34.928Z,14.60
2018-02-23T03:59:02.143Z,14.50
2018-02-23T04:01:29.708Z,16.17
2018-02-23T04:03:56.343Z,15.75
2018-02-23T04:06:24.632Z,16.15
2018-02-23T04:08:51.372Z,16.45
2018-02-23T04:11:18.311Z,18.48
2018-02-23T04:13:45.102Z,16.35
2018-02-23T04:16:15.580Z,16.87
2018-02-23T04:18:48.140Z,16.08
2018-02-23T04:21:27.431Z,16.50
2018-02-23T04:23:55.628Z,16.98
2018-02-23T04:26:22.477Z,15.70
2018-02-23T04:28:49.200Z,16.05
2018-02-23T04:31:15.935Z,15.10
2018-02-23T04:33:43.110Z,15.60
2018-02-23T04:36:09.971Z,14.90
2018-02-23T04:38:36.719Z,13.18
2018-02-23T04:41:03.404Z,14.68
2018-02-23T04:43:34.429Z,14.52
2018-02-23T04:46:04.931Z,14.35
2018-02-23T04:48:31.869Z,14.80
2018-02-23T04:51:04.360Z,15.10
2018-02-23T04:53:31.838Z,14.10
2018-02-23T04:55:58.601Z,16.95
2018-02-23T04:58:25.892Z,13.77
2018-02-23T05:00:52.614Z,14.52
2018-02-23T05:03:23.433Z,14.75
2018-02-23T05:05:50.108Z,13.65
2018-02-23T05:08:17.662Z,15.13
2018-02-23T05:10:44.539Z,12.90
2018-02-23T05:13:12.143Z,13.43
2018-02-23T05:15:40.355Z,14.70
2018-02-23T05:18:10.417Z,12.27
2018-02-23T05:20:38.496Z,13.15
2018-02-23T05:23:07.272Z,11.23
2018-02-23T05:25:38.269Z,12.05
2018-02-23T05:28:05.024Z,11.85
2018-02-23T05:30:31.722Z,12.02
2018-02-23T05:32:59.679Z,11.75
2018-02-23T05:35:34.327Z,11.98
2018-02-23T05:38:02.609Z,13.07
2018-02-23T05:40:31.703Z,12.52
2018-02-23T05:42:58.832Z,13.73
2018-02-23T05:45:38.475Z,12.57
2018-02-23T05:48:05.273Z,13.65
2018-02-23T05:50:37.652Z,14.27
2018-02-23T05:53:04.351Z,15.52
2018-02-23T05:55:31.899Z,14.68
2018-02-23T05:57:59.311Z,15.15
2018-02-23T06:00:26.080Z,14.68
2018-02-23T06:02:54.344Z,17.08
2018-02-23T06:05:25.469Z,14.52
2018-02-23T06:07:56.394Z,15.45
2018-02-23T06:10:27.167Z,13.40
2018-02-23T06:12:57.646Z,15.32
2018-02-23T06:15:25.753Z,15.20
2018-02-23T06:17:58.461Z,14.43
2018-02-23T06:20:29.005Z,13.27
2018-02-23T06:22:55.640Z,10.55
2018-02-23T06:25:22.326Z,13.93
2018-02-23T06:27:48.977Z,13.00
2018-02-23T06:30:15.603Z,14.30
2018-02-23T06:32:42.253Z,11.80
2018-02-23T06:35:08.888Z,12.20
2018-02-23T06:37:35.528Z,13.52
2018-02-23T06:40:02.188Z,13.32
2018-02-23T06:42:28.844Z,12.20
2018-02-23T06:44:55.477Z,14.55
2018-02-23T06:47:22.121Z,13.38
2018-02-23T06:49:48.761Z,13.73
2018-02-23T06:52:15.403Z,12.30
2018-02-23T06:54:46.012Z,14.15
2018-02-23T06:57:12.657Z,13.55
2018-02-23T06:59:39.312Z,11.25
2018-02-23T07:02:05.956Z,12.45
2018-02-23T07:04:32.627Z,12.80
2018-02-23T07:06:59.281Z,12.98
2018-02-23T07:09:26.743Z,12.13
2018-02-23T07:11:53.376Z,13.45
2018-02-23T07:14:20.006Z,11.38
2018-02-23T07:16:46.660Z,11.40
2018-02-23T07:19:13.353Z,12.15
2018-02-23T07:21:39.982Z,11.45
2018-02-23T07:24:06.638Z,9.73
2018-02-23T07:26:33.289Z,9.48
2018-02-23T07:28:59.949Z,9.75
2018-02-23T07:31:26.572Z,9.18
2018-02-23T07:33:53.214Z,8.85
2018-02-23T07:36:19.832Z,8.13
2018-02-23T07:38:46.484Z,9.85
2018-02-23T07:41:13.127Z,9.85
2018-02-23T07:43:39.831Z,7.53
2018-02-23T07:46:06.491Z,8.85
2018-02-23T07:48:33.133Z,8.07
2018-02-23T07:50:59.845Z,7.32
2018-02-23T07:53:26.447Z,8.00
2018-02-23T07:55:53.063Z,7.03
2018-02-23T07:58:19.704Z,6.90
2018-02-23T08:00:46.328Z,7.53
2018-02-23T08:03:12.990Z,5.72
2018-02-23T08:05:39.653Z,6.65
2018-02-23T08:08:06.284Z,6.10
2018-02-23T08:10:32.906Z,6.22
2018-02-23T08:12:59.515Z,6.25
2018-02-23T08:15:26.158Z,6.40
2018-02-23T08:17:52.775Z,4.57
2018-02-23T08:20:19.477Z,6.28
2018-02-23T08:22:46.102Z,6.82
2018-02-23T08:25:12.772Z,6.82
2018-02-23T08:27:39.396Z,5.70
2018-02-23T08:30:06.040Z,6.30
2018-02-23T08:32:33.456Z,6.45
2018-02-23T08:35:00.182Z,6.62
2018-02-23T08:37:26.800Z,6.72
2018-02-23T08:39:53.503Z,6.15
2018-02-23T08:42:20.124Z,6.07
2018-02-23T08:44:46.768Z,6.47
2018-02-23T08:47:13.408Z,6.95
2018-02-23T08:49:40.027Z,6.82
2018-02-23T08:52:06.642Z,7.55
2018-02-23T08:54:33.282Z,7.45
2018-02-23T08:57:00.045Z,7.55
2018-02-23T08:59:26.700Z,7.75
2018-02-23T09:01:53.349Z,8.02
2018-02-23T09:04:20.103Z,7.25
2018-02-23T09:06:46.729Z,7.95
2018-02-23T09:09:13.367Z,8.25
2018-02-23T09:11:40.046Z,9.40
2018-02-23T09:14:06.660Z,7.60
2018-02-23T09:16:33.397Z,7.78
2018-02-23T09:19:00.100Z,8.95
2018-02-23T09:21:26.740Z,9.40
2018-02-23T09:23:53.368Z,8.20
2018-02-23T09:26:20.998Z,8.23
2018-02-23T09:28:47.609Z,9.35
2018-02-23T09:31:14.233Z,9.20
2018-02-23T09:33:46.729Z,8.60
2018-02-23T09:36:15.049Z,9.70
2018-02-23T09:38:42.748Z,10.45
2018-02-23T09:41:09.449Z,7.82
2018-02-23T09:43:36.162Z,9.07
2018-02-23T09:46:02.791Z,9.10
2018-02-23T09:48:29.423Z,9.48
2018-02-23T09:50:56.068Z,10.27
2018-02-23T09:53:22.715Z,8.85
2018-02-23T09:55:49.392Z,9.80
2018-02-23T09:58:16.024Z,11.10
2018-02-23T10:00:42.713Z,9.65
2018-02-23T10:03:09.354Z,9.85
2018-02-23T10:05:36.079Z,10.23
2018-02-23T10:08:06.930Z,12.10
2018-02-23T10:10:33.569Z,9.60
2018-02-23T10:13:00.200Z,9.82
2018-02-23T10:15:31.032Z,8.70
2018-02-23T10:17:57.664Z,9.80
2018-02-23T10:20:24.441Z,12.30
2018-02-23T10:22:51.094Z,10.60
2018-02-23T10:25:18.017Z,11.57
2018-02-23T10:27:44.698Z,9.48
2018-02-23T10:30:11.478Z,10.50
2018-02-23T10:32:38.217Z,10.43
2018-02-23T10:35:04.958Z,11.12
2018-02-23T10:37:32.052Z,11.15
2018-02-23T10:39:58.796Z,11.02
2018-02-23T10:42:26.027Z,9.82
2018-02-23T10:44:52.721Z,10.82
2018-02-23T10:47:19.383Z,8.75
2018-02-23T10:49:46.065Z,9.23
2018-02-23T10:52:12.688Z,8.70
2018-02-23T10:54:39.346Z,8.50
2018-02-23T10:57:05.984Z,9.45
2018-02-23T10:59:32.651Z,7.32
2018-02-23T11:02:00.046Z,7.45
2018-02-23T11:04:26.665Z,8.30
2018-02-23T11:06:53.333Z,7.82
2018-02-23T11:09:20.009Z,9.07
2018-02-23T11:11:46.624Z,8.38
2018-02-23T11:14:13.343Z,9.15
2018-02-23T11:16:39.981Z,8.13
2018-02-23T11:19:06.651Z,8.80
2018-02-23T11:21:33.388Z,8.45
2018-02-23T11:24:00.816Z,9.13
2018-02-23T11:26:27.514Z,8.98
2018-02-23T11:28:54.230Z,9.35
2018-02-23T11:31:21.007Z,9.63
2018-02-23T11:33:47.619Z,9.30
2018-02-23T11:36:14.349Z,8.13
2018-02-23T11:38:40.957Z,8.60
2018-02-23T11:41:07.605Z,8.82
2018-02-23T11:43:34.231Z,7.15
2018-02-23T11:46:00.849Z,8.38
2018-02-23T11:48:27.507Z,8.88
2018-02-23T11:50:54.126Z,8.07
2018-02-23T11:53:20.764Z,9.02
2018-02-23T11:55:47.520Z,9.43
2018-02-23T11:58:14.165Z,9.00
2018-02-23T12:00:40.795Z,8.07
2018-02-23T12:03:07.425Z,8.88
2018-02-23T12:05:34.045Z,6.60
2018-02-23T12:08:00.720Z,8.32
2018-02-23T12:10:27.585Z,8.18
2018-02-23T12:12:54.264Z,6.72
2018-02-23T12:15:20.880Z,6.93
2018-02-23T12:17:47.524Z,6.25
2018-02-23T12:20:14.227Z,6.62
2018-02-23T12:22:40.976Z,6.60
2018-02-23T12:25:08.330Z,6.50
2018-02-23T12:27:42.480Z,5.90
2018-02-23T12:30:16.001Z,7.43
2018-02-23T12:32:43.703Z,5.22
2018-02-23T12:35:11.028Z,5.70
2018-02-23T12:37:38.381Z,5.78
2018-02-23T12:40:15.143Z,6.28
2018-02-23T12:42:49.748Z,5.35
2018-02-23T12:45:20.130Z,6.28
2018-02-23T12:47:50.771Z,6.05
2018-02-23T12:50:17.513Z,6.65
2018-02-23T12:52:45.634Z,6.65
2018-02-23T12:55:12.440Z,6.47
2018-02-23T12:57:39.242Z,6.75
2018-02-23T13:00:10.130Z,5.75
2018-02-23T13:02:43.867Z,6.37
2018-02-23T13:05:15.556Z,6.07
2018-02-23T13:07:45.979Z,6.70
2018-02-23T13:10:16.955Z,7.45
2018-02-23T13:12:47.967Z,7.75
2018-02-23T13:15:19.308Z,7.65
2018-02-23T13:17:45.944Z,7.12
2018-02-23T13:20:16.528Z,8.38
2018-02-23T13:22:43.688Z,7.10
2018-02-23T13:25:10.360Z,8.10
2018-02-23T13:27:37.758Z,6.82
2018-02-23T13:30:04.365Z,7.45
2018-02-23T13:32:31.031Z,7.60
2018-02-23T13:34:57.671Z,7.60
2018-02-23T13:37:24.308Z,6.05
2018-02-23T13:39:54.852Z,6.10
2018-02-23T13:42:22.316Z,6.85
2018-02-23T13:44:48.918Z,7.25
2018-02-23T13:47:15.589Z,5.53
2018-02-23T13:49:42.198Z,7.22
2018-02-23T13:52:08.880Z,6.68
2018-02-23T13:54:35.520Z,5.45
2018-02-23T13:57:02.163Z,5.62
2018-02-23T13:59:28.827Z,7.18
2018-02-23T14:01:55.465Z,7.18
2018-02-23T14:04:22.908Z,8.27
2018-02-23T14:06:50.186Z,5.90
2018-02-23T14:09:16.855Z,6.65
2018-02-23T14:11:47.710Z,7.32
2018-02-23T14:14:14.432Z,6.97
2018-02-23T14:16:41.103Z,6.87
2018-02-23T14:19:07.817Z,6.80
2018-02-23T14:21:34.432Z,7.68
2018-02-23T14:24:01.065Z,6.43
2018-02-23T14:26:27.725Z,7.20
2018-02-23T14:28:54.398Z,6.05
2018-02-23T14:31:21.032Z,6.80
2018-02-23T14:33:47.659Z,7.90
2018-02-23T14:36:14.363Z,7.78
2018-02-23T14:38:41.006Z,8.23
2018-02-23T14:41:07.655Z,7.97
2018-02-23T14:43:34.310Z,7.80
2018-02-23T14:46:00.958Z,8.05
2018-02-23T14:48:34.444Z,7.47
2018-02-23T14:51:06.959Z,8.18
2018-02-23T14:53:33.586Z,8.95
2018-02-23T14:56:00.233Z,9.23
2018-02-23T14:58:26.846Z,9.32
2018-02-23T15:00:53.532Z,8.32
2018-02-23T15:03:20.783Z,9.85
2018-02-23T15:05:51.652Z,6.68
2018-02-23T15:08:18.372Z,10.05
2018-02-23T15:10:45.013Z,8.65
2018-02-23T15:13:11.707Z,9.20
2018-02-23T15:15:38.356Z,8.32
2018-02-23T15:18:05.124Z,9.55
2018-02-23T15:20:31.812Z,7.90
2018-02-23T15:32:43.506Z,8.98
2018-02-23T15:35:10.140Z,8.20
2018-02-23T15:37:36.804Z,9.95
2018-02-23T15:40:03.552Z,9.73
2018-02-23T15:42:30.180Z,9.80
2018-02-23T15:44:57.004Z,9.15
2018-02-23T15:47:42.724Z,8.43
2018-02-23T15:50:30.683Z,8.55
2018-02-23T15:52:57.352Z,8.98
2018-02-23T15:55:24.073Z,7.95
2018-02-23T15:58:00.720Z,8.10
2018-02-23T16:00:27.365Z,9.23
2018-02-23T16:02:54.052Z,8.60
2018-02-23T16:05:20.752Z,8.30
2018-02-23T16:07:48.127Z,8.77
2018-02-23T16:10:14.797Z,9.32
2018-02-23T16:12:41.454Z,8.55
2018-02-23T16:15:08.084Z,8.07
2018-02-23T16:17:34.745Z,9.32
2018-02-23T16:20:01.961Z,9.07
2018-02-23T16:22:28.709Z,9.80
2018-02-23T16:24:55.385Z,9.48
2018-02-23T16:27:22.188Z,8.40
2018-02-23T16:29:48.867Z,8.65
2018-02-23T16:32:15.509Z,9.57
2018-02-23T16:34:42.505Z,10.05
2018-02-23T16:37:09.264Z,9.60
2018-02-23T16:39:35.891Z,10.18
2018-02-23T16:42:02.553Z,9.45
2018-02-23T16:44:29.170Z,10.02
2018-02-23T16:46:55.826Z,9.68
2018-02-23T16:49:22.446Z,10.30
2018-02-23T16:51:49.195Z,9.30
2018-02-23T16:54:15.837Z,8.82
2018-02-23T16:56:42.514Z,10.70
2018-02-23T16:59:09.154Z,9.52
2018-02-23T17:01:35.876Z,7.95
2018-02-23T17:04:02.609Z,9.00
2018-02-23T17:06:29.282Z,7.95
2018-02-23T17:08:55.923Z,8.32
2018-02-23T17:11:22.587Z,8.85
2018-02-23T17:13:49.881Z,8.05
2018-02-23T17:16:16.541Z,8.00
2018-02-23T17:18:43.179Z,8.45
2018-02-23T17:21:09.837Z,8.63
2018-02-23T17:23:36.513Z,7.60
2018-02-23T17:26:03.144Z,7.35
2018-02-23T17:28:29.778Z,8.35
2018-02-23T17:30:56.434Z,7.60
2018-02-23T17:33:23.679Z,8.82
2018-02-23T17:35:50.309Z,9.48
2018-02-23T17:38:16.943Z,9.52
2018-02-23T17:40:44.033Z,10.35
2018-02-23T17:43:10.696Z,9.65
2018-02-23T17:45:37.341Z,9.73
2018-02-23T17:48:03.974Z,9.45
2018-02-23T17:50:30.681Z,8.40
2018-02-23T17:52:57.361Z,10.88
2018-02-23T17:55:24.031Z,11.95
2018-02-23T17:57:50.697Z,9.60
2018-02-23T18:00:17.378Z,8.82
2018-02-23T18:02:43.996Z,9.15
2018-02-23T18:05:10.661Z,7.85
2018-02-23T18:07:37.290Z,9.70
2018-02-23T18:10:05.597Z,9.95
2018-02-23T18:12:32.281Z,9.80
2018-02-23T18:14:58.950Z,10.05
2018-02-23T18:17:25.593Z,9.35
2018-02-23T18:19:52.246Z,10.20
2018-02-23T18:22:18.937Z,10.50
2018-02-23T18:24:49.609Z,9.30
2018-02-23T18:27:16.341Z,10.30
2018-02-23T18:29:43.012Z,8.55
2018-02-23T18:32:09.779Z,9.65
2018-02-23T18:34:36.433Z,10.60
2018-02-23T18:37:03.189Z,9.40
2018-02-23T18:39:33.628Z,10.88
2018-02-23T18:42:06.414Z,10.25
2018-02-23T18:44:34.957Z,10.10
2018-02-23T18:47:05.935Z,10.45
2018-02-23T18:49:37.328Z,10.90
2018-02-23T18:52:04.564Z,10.23
2018-02-23T18:54:31.349Z,10.20
2018-02-23T18:56:59.062Z,10.15
2018-02-23T18:59:26.312Z,10.10
2018-02-23T19:01:56.871Z,9.50
2018-02-23T19:04:34.951Z,10.63
2018-02-23T19:07:08.256Z,9.45
2018-02-23T19:09:39.240Z,9.35
2018-02-23T19:12:05.993Z,8.40
2018-02-23T19:14:34.309Z,10.38
2018-02-23T19:17:10.476Z,9.50
2018-02-23T19:19:37.298Z,8.43
2018-02-23T19:22:05.097Z,9.65
2018-02-23T19:24:31.833Z,8.77
2018-02-23T19:27:03.199Z,9.63
2018-02-23T19:29:37.469Z,8.85
2018-02-23T19:32:10.772Z,8.95
2018-02-23T19:34:44.515Z,9.18
2018-02-23T19:37:12.640Z,9.10
2018-02-23T19:39:46.957Z,8.25
2018-02-23T19:42:18.326Z,8.90
2018-02-23T19:44:48.333Z,8.80
2018-02-23T19:47:19.984Z,7.85
2018-02-23T19:49:50.877Z,8.65
2018-02-23T19:52:18.291Z,9.70
2018-02-23T19:54:44.990Z,8.90
2018-02-23T19:57:12.634Z,8.25
2018-02-23T19:59:39.354Z,8.55
2018-02-23T20:02:06.862Z,6.93
2018-02-23T20:04:33.552Z,7.93
2018-02-23T20:07:00.298Z,8.38
2018-02-23T20:09:26.984Z,6.75
2018-02-23T20:11:54.488Z,8.75
2018-02-23T20:14:21.382Z,7.50
2018-02-23T20:16:49.040Z,8.00
2018-02-23T20:19:15.765Z,7.60
2018-02-23T20:21:42.540Z,7.82
2018-02-23T20:24:16.167Z,7.22
2018-02-23T20:26:43.640Z,6.60
2018-02-23T20:29:20.594Z,6.85
2018-02-23T20:31:53.694Z,6.85
2018-02-23T20:34:21.369Z,7.95
2018-02-23T20:36:49.089Z,6.60
2018-02-23T20:39:16.508Z,6.87
2018-02-23T20:41:52.516Z,7.10
2018-02-23T20:44:26.154Z,7.80
2018-02-23T20:46:59.232Z,7.62
2018-02-23T20:49:35.169Z,7.87
2018-02-23T20:52:05.858Z,7.57
2018-02-23T20:54:49.211Z,6.00
2018-02-23T20:57:15.969Z,6.78
2018-02-23T20:59:43.982Z,8.00
2018-02-23T21:02:10.683Z,7.35
2018-02-23T21:04:38.738Z,7.70
2018-02-23T21:07:06.408Z,8.95
2018-02-23T21:09:37.293Z,7.22
2018-02-23T21:12:10.830Z,6.87
2018-02-23T21:14:37.843Z,7.50
2018-02-23T21:17:11.298Z,7.43
2018-02-23T21:19:38.004Z,7.80
2018-02-23T21:22:06.462Z,6.40
2018-02-23T21:24:34.185Z,7.80
2018-02-23T21:27:07.696Z,6.12
2018-02-23T21:29:39.809Z,8.68
2018-02-23T21:32:06.524Z,8.65
2018-02-23T21:34:34.114Z,7.70
2018-02-23T21:37:03.518Z,7.65
2018-02-23T21:39:30.428Z,8.30
2018-02-23T21:42:01.611Z,7.70
2018-02-23T21:44:35.553Z,7.65
2018-02-23T21:47:03.118Z,8.70
2018-02-23T21:49:33.812Z,6.50
2018-02-23T21:52:10.349Z,8.63
2018-02-23T21:54:41.492Z,8.85
2018-02-23T21:57:08.851Z,8.25
2018-02-23T21:59:42.516Z,8.50
2018-02-23T22:02:10.034Z,7.45
2018-02-23T22:04:43.828Z,7.97
2018-02-23T22:07:10.545Z,7.43
2018-02-23T22:09:42.963Z,9.57
2018-02-23T22:12:18.012Z,9.15
2018-02-23T22:14:44.779Z,9.45
2018-02-23T22:17:15.709Z,9.70
2018-02-23T22:19:43.788Z,11.00
2018-02-23T22:22:12.379Z,11.18
2018-02-23T22:24:39.675Z,9.40
2018-02-23T22:27:10.819Z,10.30
2018-02-23T22:29:38.140Z,9.23
2018-02-23T22:32:07.088Z,11.27
2018-02-23T22:34:34.727Z,9.30
2018-02-23T22:37:02.985Z,10.13
2018-02-23T22:39:29.702Z,10.80
2018-02-23T22:42:01.669Z,9.20
2018-02-23T22:44:32.218Z,10.20
2018-02-23T22:46:59.069Z,9.07
2018-02-23T22:49:27.542Z,11.73
2018-02-23T22:51:55.779Z,11.35
2018-02-23T22:54:23.998Z,10.32
2018-02-23T22:56:56.241Z,10.80
2018-02-23T22:59:29.565Z,10.73
2018-02-23T23:01:56.295Z,10.13
2018-02-23T23:04:23.794Z,10.77
2018-02-23T23:06:55.448Z,11.10
2018-02-23T23:09:22.199Z,10.40
2018-02-23T23:12:01.956Z,10.68
2018-02-23T23:14:30.016Z,11.50
2018-02-23T23:16:56.772Z,11.23
2018-02-23T23:19:26.868Z,10.15
2018-02-23T23:21:54.198Z,10.00
2018-02-23T23:24:26.442Z,9.90
2018-02-23T23:26:54.507Z,11.07
2018-02-23T23:29:21.294Z,10.18
2018-02-23T23:31:52.497Z,10.85
2018-02-23T23:34:23.878Z,11.00
2018-02-23T23:36:52.183Z,11.40
2018-02-23T23:39:18.920Z,11.10
2018-02-23T23:41:49.608Z,9.80
2018-02-23T23:44:17.082Z,11.35
2018-02-23T23:46:45.694Z,12.43
2018-02-23T23:49:13.635Z,11.80
2018-02-23T23:51:45.791Z,10.35
2018-02-23T23:54:20.764Z,10.82
2018-02-23T23:56:51.141Z,11.20
2018-02-23T23:59:17.828Z,11.12
